Elisel — WDJ7125 — position and weather

sailwx.info

Track history (hours):
 
Tides and Currents Weather Stations Pressure Air Temp Water Temp Dewpoint Dewpoint Depression Visibility Wind Speed Wind Dir Waves Ship Positions

Elisel

Owner: Herman, Alan, Santa Rosa Valley, CA. More information available from US FCC via Universal Licensing System.

Last reported at 2017-Nov-30 06:51 UTC. Time now 2017-Dec-13 15:04 UTC.
Position N 32°34' W 117°25'.
Warning: this ship's position is 13 days out of date.

Length 20 m; draft 2.2 m.

Type: Pleasure craft. MMSI: 368003570.

Date/timePositionNaut miles runAvg speedWind from/ knotsBaromVisibWave heightAir tempDewpointWater temp
2017-Nov-30 06:51N 32°34' W 117°25'3 8.8
2017-Nov-30 06:29N 32°37' W 117°26'4 8.7
2017-Nov-30 06:00N 32°41' W 117°27'4 8.8
2017-Nov-30 05:30N 32°45' W 117°29'4 8.9
2017-Nov-30 05:00N 32°50' W 117°30'5 9.1
2017-Nov-30 04:30N 32°54' W 117°31'5 9.2
2017-Nov-30 04:01N 32°59' W 117°33'4 8.7
2017-Nov-30 03:31N 33°03' W 117°34'4 8.8
2017-Nov-30 03:01N 33°07' W 117°35'4 8.6
2017-Nov-30 02:30N 33°11' W 117°37'4 8.7
2017-Nov-30 02:00N 33°15' W 117°38'4 8.9
2017-Nov-30 01:30N 33°20' W 117°39'5 9.0
2017-Nov-30 01:00N 33°24' W 117°41'4 7.0
2017-Nov-30 00:30N 33°28' W 117°42'0 0.5
2017-Nov-30 00:00N 33°28' W 117°41'0 0.4
2017-Nov-29 23:22N 33°28' W 117°42'0 0.0
2017-Nov-29 22:58N 33°28' W 117°42'0 0.0
2017-Nov-29 22:22N 33°28' W 117°42'0 0.0
2017-Nov-29 21:58N 33°28' W 117°42'0 0.1
2017-Nov-29 21:16N 33°28' W 117°42'0 0.1
2017-Nov-29 20:46N 33°28' W 117°42'  
Track history (hours):
 
Tides and Currents Weather Stations Pressure Air Temp Water Temp Dewpoint Dewpoint Depression Visibility Wind Speed Wind Dir Waves Ship Positions

Elisel

Owner: Herman, Alan, Santa Rosa Valley, CA. More information available from US FCC via Universal Licensing System.

Last reported at 2017-Nov-30 06:51 UTC. Time now 2017-Dec-13 15:04 UTC.
Position N 32°34' W 117°25'.
Warning: this ship's position is 13 days out of date.

Length 20 m; draft 2.2 m.

Type: Pleasure craft. MMSI: 368003570.

Date/timePositionNaut miles runAvg speedWind from/ knotsBaromVisibWave heightAir tempDewpointWater temp
2017-Nov-30 06:51N 32°34' W 117°25'3 8.8
2017-Nov-30 06:29N 32°37' W 117°26'4 8.7
2017-Nov-30 06:00N 32°41' W 117°27'4 8.8
2017-Nov-30 05:30N 32°45' W 117°29'4 8.9
2017-Nov-30 05:00N 32°50' W 117°30'5 9.1
2017-Nov-30 04:30N 32°54' W 117°31'5 9.2
2017-Nov-30 04:01N 32°59' W 117°33'4 8.7
2017-Nov-30 03:31N 33°03' W 117°34'4 8.8
2017-Nov-30 03:01N 33°07' W 117°35'4 8.6
2017-Nov-30 02:30N 33°11' W 117°37'4 8.7
2017-Nov-30 02:00N 33°15' W 117°38'4 8.9
2017-Nov-30 01:30N 33°20' W 117°39'5 9.0
2017-Nov-30 01:00N 33°24' W 117°41'4 7.0
2017-Nov-30 00:30N 33°28' W 117°42'0 0.5
2017-Nov-30 00:00N 33°28' W 117°41'0 0.4
2017-Nov-29 23:22N 33°28' W 117°42'0 0.0
2017-Nov-29 22:58N 33°28' W 117°42'0 0.0
2017-Nov-29 22:22N 33°28' W 117°42'0 0.0
2017-Nov-29 21:58N 33°28' W 117°42'0 0.1
2017-Nov-29 21:16N 33°28' W 117°42'0 0.1
2017-Nov-29 20:46N 33°28' W 117°42'  

Dump ship's entire track history